Time;durP1;ratioP1;P1;durP2;ratioP2;P2;SDS_P1;SDS_P2;PMS_P1;PMS_P2;Temp;Humidity;BMP_temperature;BMP_pressure;BME280_temperature;BME280_humidity;BME280_pressure;Samples;Min_cycle;Max_cycle;Signal;HPM_P1;HPM_P2
2023/06/11 00:00:31;;;;;;;6.17;5.40;;;;;;;25.49;43.87;97268.25;5093309;28;20235;-68
2023/06/11 00:02:56;;;;;;;5.97;5.37;;;;;;;25.49;44.30;97262.91;5090218;28;20799;-70
2023/06/11 00:05:24;;;;;;;5.97;5.30;;;;;;;25.41;43.97;97258.75;5089836;28;20603;-70
2023/06/11 00:07:50;;;;;;;5.70;5.13;;;;;;;25.40;44.36;97257.09;5090163;28;20201;-70
2023/06/11 00:10:16;;;;;;;6.93;6.17;;;;;;;25.39;44.43;97260.84;5090003;28;20473;-71
2023/06/11 00:12:42;;;;;;;6.33;5.63;;;;;;;25.35;44.09;97257.03;5091202;28;20447;-70
2023/06/11 00:15:08;;;;;;;6.13;5.60;;;;;;;25.28;44.57;97263.38;5090988;28;20194;-70
2023/06/11 00:17:33;;;;;;;5.80;5.20;;;;;;;25.25;44.73;97263.88;5089694;28;20487;-70
2023/06/11 00:20:03;;;;;;;5.83;5.43;;;;;;;25.22;44.52;97258.19;5072402;28;20178;-71
2023/06/11 00:22:31;;;;;;;6.73;6.17;;;;;;;25.19;44.50;97258.66;5097747;28;20694;-66
2023/06/11 00:24:57;;;;;;;6.27;5.67;;;;;;;25.18;45.03;97257.03;5088773;28;20415;-71
2023/06/11 00:27:22;;;;;;;6.23;5.67;;;;;;;25.13;45.23;97252.41;5098217;28;20765;-70
2023/06/11 00:29:48;;;;;;;6.77;6.07;;;;;;;25.08;45.36;97249.66;5089807;28;20185;-71
2023/06/11 00:32:13;;;;;;;6.87;6.00;;;;;;;25.01;45.29;97252.53;5091638;28;20209;-71
2023/06/11 00:34:39;;;;;;;7.70;5.80;;;;;;;25.00;45.24;97251.69;5071542;28;20173;-70
2023/06/11 00:37:05;;;;;;;7.80;6.03;;;;;;;25.03;45.34;97261.13;5089503;28;20254;-71
2023/06/11 00:39:30;;;;;;;7.70;6.37;;;;;;;25.05;45.76;97242.91;5089754;28;20666;-69
2023/06/11 00:41:57;;;;;;;6.10;5.60;;;;;;;25.07;45.26;97245.38;5090355;28;20444;-70
2023/06/11 00:44:23;;;;;;;5.60;5.20;;;;;;;25.05;45.61;97242.91;5075161;28;20193;-70
2023/06/11 00:46:51;;;;;;;7.50;6.13;;;;;;;25.06;45.47;97249.13;5089872;28;20984;-69
2023/06/11 00:49:16;;;;;;;6.07;5.57;;;;;;;25.08;45.85;97255.00;5087785;28;20178;-69
2023/06/11 00:51:44;;;;;;;7.23;6.30;;;;;;;25.09;45.78;97252.09;5089481;28;20440;-70
2023/06/11 00:54:13;;;;;;;7.13;6.43;;;;;;;25.10;45.42;97251.06;5074614;28;20188;-71
2023/06/11 00:56:41;;;;;;;6.20;5.70;;;;;;;25.07;45.50;97253.41;5072079;28;20543;-69
2023/06/11 00:59:07;;;;;;;7.37;6.40;;;;;;;25.07;46.06;97250.75;5088705;28;20494;-70
2023/06/11 01:01:41;;;;;;;6.60;6.00;;;;;;;25.11;45.47;97252.69;5083498;28;20447;-69
2023/06/11 01:04:12;;;;;;;6.23;5.63;;;;;;;25.14;45.61;97251.38;5079267;28;20473;-69
2023/06/11 01:06:37;;;;;;;5.83;5.33;;;;;;;25.11;45.22;97251.84;5089192;28;20420;-69
2023/06/11 01:09:04;;;;;;;5.90;5.40;;;;;;;25.05;45.60;97252.84;5088459;28;20549;-70
2023/06/11 01:11:32;;;;;;;6.70;6.10;;;;;;;24.99;45.40;97250.06;5088295;28;20201;-69
2023/06/11 01:13:58;;;;;;;6.03;5.53;;;;;;;24.97;45.71;97252.19;5068538;28;20554;-69
2023/06/11 01:16:37;;;;;;;5.60;5.20;;;;;;;24.96;45.92;97245.19;5070237;28;20448;-69
2023/06/11 01:19:16;;;;;;;5.87;5.47;;;;;;;24.93;45.63;97255.59;5070899;28;20280;-69
2023/06/11 01:21:47;;;;;;;6.53;6.03;;;;;;;24.94;45.52;97254.53;5089435;28;20850;-69
2023/06/11 01:24:21;;;;;;;6.43;5.80;;;;;;;24.92;45.90;97265.53;5070207;28;20412;-70
2023/06/11 01:27:04;;;;;;;6.67;6.07;;;;;;;24.80;46.27;97256.75;5081899;28;20486;-70
2023/06/11 01:29:30;;;;;;;7.60;5.90;;;;;;;24.77;45.99;97258.03;5053664;28;20801;-68
2023/06/11 01:31:56;;;;;;;6.67;5.97;;;;;;;24.76;46.18;97260.97;5074580;28;20456;-68
2023/06/11 01:34:25;;;;;;;7.90;7.23;;;;;;;24.63;46.47;97254.03;5092778;28;20561;-69
2023/06/11 01:36:51;;;;;;;8.97;6.40;;;;;;;24.54;46.74;97272.34;5069936;28;21059;-69
2023/06/11 01:39:16;;;;;;;6.93;6.40;;;;;;;24.49;46.91;97272.25;5088776;28;20428;-69
2023/06/11 01:41:41;;;;;;;6.93;6.33;;;;;;;24.41;47.14;97265.41;5088659;28;20246;-70
2023/06/11 01:44:07;;;;;;;6.00;5.50;;;;;;;24.41;46.86;97265.41;5087732;28;20311;-69
2023/06/11 01:46:32;;;;;;;6.60;6.10;;;;;;;24.36;46.83;97268.03;5089961;28;20314;-69
2023/06/11 01:48:58;;;;;;;6.33;5.83;;;;;;;24.29;47.44;97261.97;5088616;28;20181;-69
2023/06/11 01:51:23;;;;;;;6.57;6.00;;;;;;;24.27;47.32;97261.41;5088072;28;20726;-70
2023/06/11 01:53:49;;;;;;;6.47;5.87;;;;;;;24.24;47.53;97260.03;5087905;28;20208;-69
2023/06/11 01:56:15;;;;;;;6.43;5.93;;;;;;;24.29;47.46;97268.16;5094940;28;20197;-70
2023/06/11 01:58:40;;;;;;;6.30;5.80;;;;;;;24.19;47.50;97262.63;5087656;28;20196;-69
2023/06/11 02:01:08;;;;;;;6.63;5.93;;;;;;;24.20;47.38;97264.22;5090968;28;20431;-70
2023/06/11 02:03:33;;;;;;;6.33;5.83;;;;;;;24.14;47.71;97265.19;5095907;28;20238;-69
2023/06/11 02:05:59;;;;;;;8.30;6.33;;;;;;;24.12;47.94;97257.41;5088514;28;20428;-71
2023/06/11 02:08:26;;;;;;;7.00;6.40;;;;;;;24.09;47.70;97268.59;5087795;28;20185;-71
2023/06/11 02:10:51;;;;;;;7.10;6.50;;;;;;;24.06;47.73;97256.50;5096268;28;20723;-70
2023/06/11 02:13:17;;;;;;;7.23;6.60;;;;;;;24.00;47.94;97265.47;5088338;28;20428;-69
2023/06/11 02:15:42;;;;;;;7.47;5.93;;;;;;;23.98;48.29;97264.88;5086204;28;20178;-70
2023/06/11 02:18:07;;;;;;;6.90;6.20;;;;;;;23.96;48.16;97258.16;5088092;28;20587;-71
2023/06/11 02:20:33;;;;;;;6.83;6.23;;;;;;;23.94;48.01;97261.03;5096182;28;20216;-70
2023/06/11 02:22:58;;;;;;;6.93;6.33;;;;;;;23.95;48.49;97251.13;5095866;28;20203;-71
2023/06/11 02:25:24;;;;;;;6.87;6.30;;;;;;;23.89;48.36;97253.72;5102060;28;20211;-70
2023/06/11 02:27:49;;;;;;;7.03;6.30;;;;;;;23.88;48.01;97252.06;5090366;28;20231;-69
2023/06/11 02:30:15;;;;;;;7.93;6.53;;;;;;;23.87;48.21;97276.41;5091973;28;20226;-69
2023/06/11 02:32:40;;;;;;;6.40;5.80;;;;;;;23.86;48.38;97264.91;5087675;28;20205;-69
2023/06/11 02:35:07;;;;;;;6.73;6.13;;;;;;;23.89;48.40;97266.28;5087316;28;20193;-69
2023/06/11 02:37:32;;;;;;;7.27;6.57;;;;;;;23.89;47.98;97266.28;5087619;28;20292;-72
2023/06/11 02:39:58;;;;;;;9.00;6.70;;;;;;;23.82;48.38;97274.44;5087696;28;20871;-69
2023/06/11 02:42:23;;;;;;;6.37;5.87;;;;;;;23.75;48.33;97269.22;5087610;28;20288;-70
2023/06/11 02:44:49;;;;;;;6.67;6.17;;;;;;;23.74;48.36;97278.28;5096429;28;20170;-71
2023/06/11 02:47:14;;;;;;;7.50;6.80;;;;;;;23.74;48.71;97272.94;5087816;28;20177;-69
2023/06/11 02:49:40;;;;;;;7.00;6.30;;;;;;;23.74;48.47;97272.94;5087145;28;20588;-69
2023/06/11 02:52:05;;;;;;;7.03;6.33;;;;;;;23.63;48.67;97279.13;5086821;28;20198;-70
2023/06/11 02:54:31;;;;;;;7.20;6.60;;;;;;;23.63;48.85;97282.59;5088725;28;20205;-70
2023/06/11 02:56:56;;;;;;;7.73;6.90;;;;;;;23.62;48.90;97280.16;5088508;28;20254;-69
2023/06/11 02:59:22;;;;;;;7.33;6.77;;;;;;;23.60;48.84;97287.63;5093294;28;20205;-69
2023/06/11 03:01:48;;;;;;;7.97;6.83;;;;;;;23.62;49.23;97283.69;5103646;28;20232;-69
2023/06/11 03:04:13;;;;;;;8.53;7.13;;;;;;;23.60;48.75;97292.97;5056929;28;20784;-70
2023/06/11 03:06:39;;;;;;;7.60;6.80;;;;;;;23.58;49.20;97289.69;5081082;28;20427;-70
2023/06/11 03:09:04;;;;;;;7.60;6.60;;;;;;;23.56;49.01;97297.16;5079622;28;20608;-70
2023/06/11 03:11:30;;;;;;;10.03;6.40;;;;;;;23.47;48.95;97297.50;5075551;28;20206;-70
2023/06/11 03:13:55;;;;;;;6.80;6.20;;;;;;;23.43;49.34;97304.38;5084180;28;20226;-69
2023/06/11 03:16:21;;;;;;;7.17;6.57;;;;;;;23.37;49.51;97299.97;5086821;28;20579;-70
2023/06/11 03:18:46;;;;;;;11.70;6.27;;;;;;;23.37;49.26;97299.97;5084679;28;20624;-70
2023/06/11 03:21:12;;;;;;;8.00;7.30;;;;;;;23.30;49.50;97304.63;5087444;28;20205;-69
2023/06/11 03:23:37;;;;;;;7.87;7.17;;;;;;;23.25;49.76;97297.25;5086539;28;20177;-69
2023/06/11 03:26:02;;;;;;;7.50;6.80;;;;;;;23.27;49.60;97299.72;5087249;28;20629;-70
2023/06/11 03:28:28;;;;;;;6.93;6.23;;;;;;;23.27;49.81;97300.53;5092757;28;20184;-70
2023/06/11 03:30:53;;;;;;;7.07;6.47;;;;;;;23.22;49.73;97296.91;5071602;28;20338;-70
2023/06/11 03:33:19;;;;;;;7.53;6.67;;;;;;;23.21;49.74;97305.97;5086056;28;20714;-69
2023/06/11 03:35:45;;;;;;;9.90;6.70;;;;;;;23.18;50.02;97301.91;5082797;28;20798;-70
2023/06/11 03:38:10;;;;;;;7.10;6.37;;;;;;;23.14;49.93;97308.72;5090968;28;20198;-70
2023/06/11 03:40:36;;;;;;;8.63;7.47;;;;;;;23.12;50.16;97305.50;5091956;28;20269;-69
2023/06/11 03:43:01;;;;;;;8.43;6.90;;;;;;;23.16;49.85;97303.97;5088690;28;20281;-70
2023/06/11 03:45:27;;;;;;;7.70;6.97;;;;;;;23.19;49.75;97308.88;5089218;28;20212;-70
2023/06/11 03:47:55;;;;;;;7.27;6.67;;;;;;;23.19;49.68;97314.22;5090043;28;20170;-70
2023/06/11 03:50:22;;;;;;;7.73;7.10;;;;;;;23.16;49.98;97306.66;5090730;28;20467;-71
2023/06/11 03:52:47;;;;;;;6.60;6.10;;;;;;;23.11;50.08;97318.03;5083040;28;20834;-69
2023/06/11 03:55:13;;;;;;;9.30;7.30;;;;;;;23.12;50.15;97311.66;5089833;28;20411;-70
2023/06/11 03:57:39;;;;;;;6.97;6.37;;;;;;;23.09;49.96;97311.31;5089491;28;20307;-70
2023/06/11 04:00:06;;;;;;;8.10;7.30;;;;;;;23.06;50.14;97314.44;5092604;28;20180;-69
2023/06/11 04:02:31;;;;;;;7.00;6.40;;;;;;;23.02;50.54;97316.75;5095081;28;20298;-71
2023/06/11 04:04:57;;;;;;;6.97;6.40;;;;;;;23.01;50.37;97318.59;5090092;28;20976;-70
2023/06/11 04:07:22;;;;;;;7.87;7.17;;;;;;;22.99;50.84;97314.53;5101800;28;20180;-70
2023/06/11 04:09:47;;;;;;;7.43;6.53;;;;;;;;;;5092088;28;20213;-70
2023/06/11 04:12:13;;;;;;;7.77;6.93;;;;;;;22.96;50.69;97320.31;5083853;28;20193;-70
2023/06/11 04:14:38;;;;;;;7.80;7.10;;;;;;;22.96;50.79;97326.50;5085520;28;20265;-70
2023/06/11 04:17:04;;;;;;;7.17;6.57;;;;;;;22.98;50.55;97323.59;5089522;28;20665;-70
2023/06/11 04:19:30;;;;;;;7.80;6.80;;;;;;;22.91;50.68;97330.91;5088616;28;20296;-71
2023/06/11 04:21:55;;;;;;;8.13;7.43;;;;;;;22.73;51.56;97335.25;5090611;28;20637;-71
2023/06/11 04:24:20;;;;;;;7.97;7.27;;;;;;;22.62;52.06;97333.38;5083856;28;20228;-72
2023/06/11 04:26:47;;;;;;;7.33;6.73;;;;;;;22.54;52.29;97337.16;5091333;28;20245;-72
2023/06/11 04:29:15;;;;;;;8.37;7.53;;;;;;;22.49;52.39;97326.38;5085671;28;20182;-69
2023/06/11 04:31:46;;;;;;;8.13;7.40;;;;;;;22.40;52.73;97328.50;5090685;28;20869;-70
2023/06/11 04:34:16;;;;;;;8.90;8.03;;;;;;;22.40;52.92;97345.31;5066689;28;20925;-70
2023/06/11 04:36:43;;;;;;;9.00;7.97;;;;;;;22.35;53.14;97341.69;5090804;28;20454;-70
2023/06/11 04:39:08;;;;;;;8.03;7.33;;;;;;;22.31;53.57;97340.50;5089573;28;20455;-69
2023/06/11 04:41:36;;;;;;;8.53;7.80;;;;;;;22.23;53.84;97331.78;5088599;28;20468;-70
2023/06/11 04:44:02;;;;;;;7.87;7.17;;;;;;;22.22;54.04;97337.34;5064945;28;20178;-71
2023/06/11 04:46:27;;;;;;;8.10;7.17;;;;;;;22.17;54.41;97330.03;5087388;28;20829;-71
2023/06/11 04:48:53;;;;;;;8.33;7.30;;;;;;;22.22;54.24;97335.47;5092600;28;20408;-69
2023/06/11 04:51:20;;;;;;;8.07;7.27;;;;;;;22.25;54.30;97331.53;5080477;28;20189;-69
2023/06/11 04:53:46;;;;;;;8.30;7.10;;;;;;;22.29;54.32;97337.25;5099142;28;20866;-70
2023/06/11 04:56:11;;;;;;;8.03;7.23;;;;;;;22.23;54.70;97339.78;5094360;28;20512;-70
2023/06/11 04:58:37;;;;;;;9.40;8.23;;;;;;;22.29;54.35;97338.06;5088262;28;20178;-69
2023/06/11 05:01:05;;;;;;;8.07;7.27;;;;;;;22.33;54.54;97330.41;5087266;28;20600;-70
2023/06/11 05:03:36;;;;;;;8.40;7.60;;;;;;;22.34;54.64;97340.06;5065889;28;20182;-70
2023/06/11 05:06:03;;;;;;;8.10;7.30;;;;;;;22.42;54.66;97331.78;5094521;28;20412;-70
2023/06/11 05:08:28;;;;;;;8.97;7.07;;;;;;;22.53;54.45;97339.03;5086021;28;20428;-69
2023/06/11 05:11:00;;;;;;;9.03;7.77;;;;;;;22.59;54.04;97336.47;5093928;28;20933;-70
2023/06/11 05:13:26;;;;;;;7.60;6.90;;;;;;;22.68;53.86;97343.97;5088580;28;20179;-69
2023/06/11 05:15:56;;;;;;;7.97;6.27;;;;;;;22.76;53.54;97345.50;5084453;28;20416;-70
2023/06/11 05:18:23;;;;;;;7.97;6.43;;;;;;;22.86;53.57;97343.09;5090349;28;20428;-71
2023/06/11 05:20:48;;;;;;;9.83;8.43;;;;;;;22.95;53.11;97340.06;5088029;28;20428;-71
2023/06/11 05:23:15;;;;;;;8.10;7.33;;;;;;;23.05;52.99;97350.22;5086294;28;20458;-70
2023/06/11 05:25:46;;;;;;;7.13;6.00;;;;;;;23.13;52.55;97352.53;5091943;28;20656;-69
2023/06/11 05:28:12;;;;;;;7.50;6.90;;;;;;;23.27;52.71;97350.53;5081165;28;20758;-71
2023/06/11 05:30:38;;;;;;;6.80;6.10;;;;;;;23.37;52.41;97352.63;5079143;28;20447;-70
2023/06/11 05:33:05;;;;;;;7.00;6.30;;;;;;;23.42;51.73;97345.53;5089548;28;20193;-70
2023/06/11 05:35:30;;;;;;;6.57;5.97;;;;;;;23.40;51.12;97346.78;5087066;28;20477;-70
2023/06/11 05:37:57;;;;;;;7.17;6.40;;;;;;;23.48;50.83;97354.50;5087720;28;20447;-70
2023/06/11 05:40:23;;;;;;;6.57;6.07;;;;;;;23.62;50.64;97345.19;5091505;28;20205;-71
2023/06/11 05:42:48;;;;;;;6.77;6.07;;;;;;;23.75;50.51;97348.69;5084680;28;20447;-69
2023/06/11 05:45:15;;;;;;;6.63;5.93;;;;;;;23.88;50.70;97350.28;5088311;28;20510;-71
2023/06/11 05:47:40;;;;;;;7.00;6.30;;;;;;;23.95;50.02;97350.16;5090176;28;20170;-70
2023/06/11 05:50:06;;;;;;;6.80;6.20;;;;;;;24.06;50.14;97358.22;5088286;28;20426;-70
2023/06/11 05:52:32;;;;;;;6.80;6.20;;;;;;;24.17;49.79;97361.09;5096930;28;20581;-71
2023/06/11 05:54:57;;;;;;;6.93;6.10;;;;;;;24.33;49.74;97352.31;5087965;28;20438;-71
2023/06/11 05:57:24;;;;;;;6.27;5.77;;;;;;;24.48;49.24;97359.00;5087419;28;20244;-70
2023/06/11 05:59:53;;;;;;;7.20;6.57;;;;;;;24.53;48.69;97361.81;5088344;28;20255;-71
2023/06/11 06:02:18;;;;;;;7.03;6.10;;;;;;;24.62;47.67;97362.25;5066765;28;20444;-70
2023/06/11 06:04:48;;;;;;;6.37;5.80;;;;;;;24.73;47.89;97373.97;5087837;28;20522;-70
2023/06/11 06:07:14;;;;;;;6.50;5.90;;;;;;;24.83;48.17;97369.63;5089553;28;20181;-71
2023/06/11 06:09:39;;;;;;;8.33;6.30;;;;;;;24.94;47.75;97369.78;5093174;28;20488;-70
2023/06/11 06:12:05;;;;;;;7.60;6.80;;;;;;;25.03;47.48;97379.06;5095682;28;20527;-72
2023/06/11 06:14:31;;;;;;;7.83;6.50;;;;;;;25.07;47.36;97374.06;5095167;28;20192;-71
2023/06/11 06:16:57;;;;;;;6.47;5.87;;;;;;;24.93;46.92;97384.25;5088440;28;20618;-71
2023/06/11 06:19:22;;;;;;;7.10;6.50;;;;;;;25.07;46.95;97374.06;5071435;28;20412;-70
2023/06/11 06:21:48;;;;;;;6.40;5.80;;;;;;;25.18;46.24;97386.56;5080122;28;20213;-72
2023/06/11 06:24:13;;;;;;;7.00;6.30;;;;;;;25.28;46.25;97386.75;5093314;28;20192;-70
2023/06/11 06:26:40;;;;;;;6.87;5.87;;;;;;;25.34;46.13;97389.50;5071232;28;20265;-70
2023/06/11 06:29:07;;;;;;;12.43;6.20;;;;;;;25.43;45.93;97377.34;5080079;28;20173;-70
2023/06/11 06:31:33;;;;;;;7.43;6.30;;;;;;;25.50;45.27;97377.19;5102112;28;20455;-70
2023/06/11 06:33:59;;;;;;;7.27;5.90;;;;;;;25.56;44.98;97378.88;5087550;28;20423;-69
2023/06/11 06:36:24;;;;;;;7.17;6.00;;;;;;;25.66;44.99;97380.91;5087822;28;20201;-70
2023/06/11 06:38:49;;;;;;;5.87;5.33;;;;;;;25.78;45.72;97378.94;5089413;28;20256;-71
2023/06/11 06:41:15;;;;;;;6.60;6.00;;;;;;;25.74;45.07;97383.16;5093860;28;20201;-70
2023/06/11 06:43:40;;;;;;;8.23;6.13;;;;;;;25.73;44.82;97377.00;5068872;28;20193;-69
2023/06/11 06:46:06;;;;;;;7.03;6.43;;;;;;;25.87;44.91;97376.66;5093698;28;20702;-69
2023/06/11 06:48:32;;;;;;;6.53;5.93;;;;;;;25.95;45.10;97381.59;5087413;28;20235;-71
2023/06/11 06:50:57;;;;;;;6.50;5.90;;;;;;;26.01;43.72;97385.16;5093491;28;20831;-71
2023/06/11 06:53:23;;;;;;;6.50;5.90;;;;;;;26.13;44.11;97383.19;5087607;28;20690;-71
2023/06/11 06:55:48;;;;;;;6.50;6.00;;;;;;;26.13;44.10;97387.75;5086766;28;20722;-71
2023/06/11 06:58:14;;;;;;;5.70;5.13;;;;;;;26.09;43.79;97390.09;5087198;28;20193;-71
2023/06/11 07:00:40;;;;;;;6.30;5.80;;;;;;;26.33;43.76;97381.84;5093556;28;20181;-69
2023/06/11 07:03:06;;;;;;;6.33;5.57;;;;;;;26.35;42.89;97390.44;5086586;28;20276;-71
2023/06/11 07:05:32;;;;;;;5.87;5.47;;;;;;;26.46;42.73;97394.06;5087053;28;21040;-71
2023/06/11 07:07:57;;;;;;;6.07;5.57;;;;;;;26.61;42.79;97396.13;5095083;28;20261;-70
2023/06/11 07:10:22;;;;;;;7.10;6.40;;;;;;;26.71;42.47;97390.03;5091313;28;20738;-71
2023/06/11 07:12:48;;;;;;;6.37;5.67;;;;;;;26.79;42.50;97387.75;5100917;28;20663;-71
2023/06/11 07:15:13;;;;;;;8.17;5.60;;;;;;;26.78;42.48;97390.66;5091136;28;20197;-70
2023/06/11 07:17:39;;;;;;;5.90;5.40;;;;;;;26.86;41.95;97376.81;5090086;28;20194;-71
2023/06/11 07:20:07;;;;;;;6.80;6.23;;;;;;;26.94;41.76;97379.03;5095300;28;20226;-71
2023/06/11 07:22:32;;;;;;;6.17;5.67;;;;;;;27.07;41.14;97387.75;5095101;28;20208;-70
2023/06/11 07:25:00;;;;;;;5.97;5.47;;;;;;;26.95;41.02;97379.84;5090630;28;21124;-70
2023/06/11 07:27:26;;;;;;;8.53;5.20;;;;;;;27.13;41.11;97375.97;5072348;28;20272;-69
2023/06/11 07:29:51;;;;;;;6.30;5.60;;;;;;;27.17;40.70;97390.50;5091103;28;20511;-69
2023/06/11 07:32:17;;;;;;;6.00;5.50;;;;;;;27.26;40.16;97377.41;5096176;28;20296;-69
2023/06/11 07:34:42;;;;;;;5.93;5.27;;;;;;;27.22;40.32;97389.78;5090231;28;20170;-69
2023/06/11 07:37:08;;;;;;;7.03;5.80;;;;;;;27.28;40.52;97383.34;5090643;28;20343;-68
2023/06/11 07:39:34;;;;;;;8.00;5.90;;;;;;;27.28;40.38;97388.72;5090725;28;20190;-71
2023/06/11 07:42:00;;;;;;;6.53;5.80;;;;;;;27.42;40.32;97389.09;5089933;28;20560;-69
2023/06/11 07:44:25;;;;;;;5.63;5.23;;;;;;;27.50;39.47;97386.00;5097089;28;20431;-69
2023/06/11 07:46:50;;;;;;;8.20;6.10;;;;;;;27.60;39.05;97385.22;5091206;28;20258;-70
2023/06/11 07:49:16;;;;;;;5.60;5.20;;;;;;;27.70;39.20;97384.50;5091015;28;20598;-70
2023/06/11 07:51:42;;;;;;;8.23;5.83;;;;;;;27.66;38.33;97391.50;5095263;28;20232;-68
2023/06/11 07:54:08;;;;;;;6.53;5.27;;;;;;;27.91;38.83;97382.75;5072089;28;20268;-68
2023/06/11 07:56:34;;;;;;;5.43;5.03;;;;;;;27.79;38.34;97395.59;5090700;28;21022;-69
2023/06/11 07:58:59;;;;;;;5.23;4.83;;;;;;;27.91;37.50;97388.13;5072383;28;20419;-68
2023/06/11 08:01:25;;;;;;;7.87;5.03;;;;;;;28.13;37.13;97393.41;5090459;28;20862;-68
2023/06/11 08:03:51;;;;;;;5.30;4.80;;;;;;;28.29;37.01;97396.19;5089448;28;20209;-72
2023/06/11 08:06:16;;;;;;;5.43;4.90;;;;;;;28.43;36.21;97396.50;5072235;28;20946;-70
2023/06/11 08:08:42;;;;;;;12.97;5.77;;;;;;;28.53;35.78;97396.53;5089499;28;20257;-68
2023/06/11 08:11:07;;;;;;;6.20;4.70;;;;;;;28.63;35.49;97385.75;5090105;28;20181;-69
2023/06/11 08:13:34;;;;;;;6.30;5.50;;;;;;;28.69;35.50;97394.66;5089750;28;20205;-69
2023/06/11 08:16:00;;;;;;;5.60;5.10;;;;;;;28.77;35.22;97396.06;5089588;28;20263;-69
2023/06/11 08:18:26;;;;;;;7.43;4.67;;;;;;;28.81;34.65;97387.19;5089732;28;20477;-69
2023/06/11 08:20:53;;;;;;;5.47;4.97;;;;;;;28.86;34.39;97388.28;5089331;28;20942;-69
2023/06/11 08:23:18;;;;;;;5.30;4.77;;;;;;;29.01;34.30;97385.63;5089953;28;20658;-69
2023/06/11 08:25:44;;;;;;;7.20;4.67;;;;;;;29.16;34.09;97376.72;5089013;28;20438;-69
2023/06/11 08:28:09;;;;;;;4.70;4.30;;;;;;;29.10;32.97;97384.00;5093752;28;20193;-69
2023/06/11 08:30:35;;;;;;;4.97;4.60;;;;;;;29.23;33.50;97390.75;5101835;28;20196;-70
2023/06/11 08:33:00;;;;;;;5.60;4.50;;;;;;;29.33;33.35;97383.75;5093464;28;20797;-69
2023/06/11 08:35:26;;;;;;;7.37;4.50;;;;;;;29.42;32.78;97390.25;5083945;28;20311;-70
2023/06/11 08:37:51;;;;;;;4.53;4.23;;;;;;;29.35;32.64;97389.72;5088726;28;20224;-69
2023/06/11 08:40:17;;;;;;;6.03;4.40;;;;;;;29.42;31.95;97388.34;5089707;28;20182;-70
2023/06/11 08:42:42;;;;;;;5.07;4.63;;;;;;;29.58;32.56;97383.75;5071091;28;20224;-70
2023/06/11 08:45:08;;;;;;;4.90;4.50;;;;;;;29.61;31.87;97376.19;5071209;28;20177;-69
2023/06/11 08:47:39;;;;;;;6.40;4.40;;;;;;;29.63;31.12;97374.84;5090963;28;20234;-70
2023/06/11 08:50:05;;;;;;;5.00;4.60;;;;;;;29.53;31.74;97378.34;5070175;28;20185;-69
2023/06/11 08:52:31;;;;;;;5.27;4.77;;;;;;;29.33;31.76;97386.44;5086151;28;21027;-70
2023/06/11 08:54:58;;;;;;;5.30;4.17;;;;;;;29.63;32.26;97374.84;5072433;28;21170;-69
2023/06/11 08:57:25;;;;;;;5.67;4.17;;;;;;;29.87;32.35;97375.03;5090097;28;20976;-71
2023/06/11 08:59:50;;;;;;;4.97;4.47;;;;;;;30.02;31.83;97378.81;5089628;28;20455;-69
2023/06/11 09:02:16;;;;;;;4.60;4.20;;;;;;;30.03;31.05;97383.16;5099613;28;20463;-71
2023/06/11 09:04:43;;;;;;;4.60;4.20;;;;;;;30.17;31.25;97367.97;5088157;28;20272;-70
2023/06/11 09:07:09;;;;;;;7.17;4.70;;;;;;;30.11;30.27;97374.50;5088027;28;20407;-70
2023/06/11 09:09:35;;;;;;;13.17;4.43;;;;;;;30.32;30.29;97371.69;5084751;28;20917;-68
2023/06/11 09:12:05;;;;;;;4.97;4.43;;;;;;;30.42;30.33;97374.34;5097218;28;20200;-70
2023/06/11 09:14:31;;;;;;;4.53;4.13;;;;;;;30.28;29.82;97374.16;5084915;28;20547;-69
2023/06/11 09:16:56;;;;;;;5.00;4.50;;;;;;;30.08;29.17;97374.22;5078803;28;20479;-69
2023/06/11 09:19:22;;;;;;;4.80;4.40;;;;;;;30.12;30.21;97373.38;5088028;28;20537;-69
2023/06/11 09:21:49;;;;;;;9.00;4.93;;;;;;;30.30;29.96;97365.75;5097349;28;20213;-69
2023/06/11 09:24:17;;;;;;;4.83;4.40;;;;;;;30.47;30.36;97368.94;5092461;28;20334;-69
2023/06/11 09:26:53;;;;;;;4.97;4.47;;;;;;;30.60;29.82;97364.03;5088983;28;20427;-68
2023/06/11 09:29:20;;;;;;;5.10;4.33;;;;;;;30.76;29.32;97368.25;5090615;28;20408;-69
2023/06/11 09:31:45;;;;;;;5.13;4.63;;;;;;;30.85;29.40;97367.66;5096029;28;20448;-69
2023/06/11 09:34:12;;;;;;;4.90;4.40;;;;;;;30.91;29.32;97363.81;5087964;28;20484;-69
2023/06/11 09:36:38;;;;;;;4.60;4.20;;;;;;;31.06;29.52;97361.00;5084988;28;20206;-70
2023/06/11 09:39:04;;;;;;;5.00;4.60;;;;;;;31.14;29.19;97365.03;5095418;28;21214;-69
2023/06/11 09:41:30;;;;;;;4.57;4.20;;;;;;;31.08;27.89;97358.84;5099394;28;20225;-69
2023/06/11 09:43:56;;;;;;;7.67;4.37;;;;;;;30.91;27.87;97363.81;5088971;28;20186;-70
2023/06/11 09:46:22;;;;;;;4.90;4.40;;;;;;;31.07;27.76;97368.03;5073136;28;20441;-70
2023/06/11 09:48:48;;;;;;;5.20;4.70;;;;;;;30.97;27.02;97362.72;5070731;28;21066;-69
2023/06/11 09:51:14;;;;;;;4.93;4.37;;;;;;;31.09;27.76;97360.47;5088114;28;20437;-72
2023/06/11 09:53:41;;;;;;;5.27;4.70;;;;;;;31.17;27.44;97367.19;5070261;28;20423;-69
2023/06/11 09:56:06;;;;;;;6.73;4.17;;;;;;;31.29;27.43;97368.72;5067595;28;20424;-69
2023/06/11 09:58:33;;;;;;;4.87;4.27;;;;;;;31.35;27.35;97364.88;5088153;28;20426;-69
2023/06/11 10:01:00;;;;;;;8.87;4.53;;;;;;;31.31;27.51;97361.94;5088074;28;20207;-68
2023/06/11 10:03:26;;;;;;;7.03;4.00;;;;;;;31.17;27.75;97364.50;5077554;28;20462;-69
2023/06/11 10:05:52;;;;;;;5.00;4.60;;;;;;;31.46;28.02;97360.97;5094780;28;20452;-70
2023/06/11 10:08:20;;;;;;;7.43;4.40;;;;;;;31.69;27.59;97362.16;5091410;28;20646;-70
2023/06/11 10:10:50;;;;;;;4.90;4.40;;;;;;;31.81;27.10;97358.22;5074517;28;20450;-69
2023/06/11 10:13:33;;;;;;;4.40;4.10;;;;;;;31.64;26.85;97359.44;5077262;28;20455;-71
2023/06/11 10:16:03;;;;;;;9.70;4.10;;;;;;;31.64;26.55;97356.75;5089629;28;20970;-68
2023/06/11 10:18:30;;;;;;;8.10;4.20;;;;;;;31.83;26.13;97358.75;5081676;28;20431;-67
2023/06/11 10:21:02;;;;;;;4.90;4.00;;;;;;;32.01;25.72;97374.25;5087133;28;20435;-69
2023/06/11 10:23:36;;;;;;;6.80;4.30;;;;;;;32.20;25.69;97362.66;5081203;28;20435;-70
2023/06/11 10:26:01;;;;;;;4.93;4.43;;;;;;;32.36;25.60;97352.47;5088718;28;20430;-69
2023/06/11 10:28:52;;;;;;;4.60;4.20;;;;;;;32.58;25.95;97354.63;5087702;28;20799;-69
2023/06/11 10:31:29;;;;;;;5.37;4.60;;;;;;;32.77;25.26;97361.94;5087729;28;20197;-69
2023/06/11 10:34:01;;;;;;;4.67;4.27;;;;;;;32.82;25.31;97359.19;5088120;28;20431;-69
2023/06/11 10:36:36;;;;;;;5.13;4.50;;;;;;;32.57;25.23;97360.34;5089067;28;20557;-69
2023/06/11 10:39:22;;;;;;;7.50;4.83;;;;;;;32.77;25.75;97349.19;5087507;28;20424;-68
2023/06/11 10:41:58;;;;;;;6.77;4.80;;;;;;;32.90;25.11;97350.38;5081166;28;20492;-69
2023/06/11 10:44:24;;;;;;;4.70;4.33;;;;;;;33.04;25.55;97353.16;5070920;28;20438;-68
2023/06/11 10:46:52;;;;;;;4.87;4.30;;;;;;;33.10;25.41;97353.88;5072812;28;20427;-69
2023/06/11 10:49:21;;;;;;;7.40;4.83;;;;;;;33.14;25.22;97349.47;5091650;28;20460;-70
2023/06/11 10:51:48;;;;;;;11.37;4.20;;;;;;;33.08;25.10;97356.06;5103645;28;20431;-69
2023/06/11 10:54:23;;;;;;;5.30;4.77;;;;;;;33.12;25.10;97369.84;5091398;28;20511;-69
2023/06/11 10:56:49;;;;;;;9.83;5.07;;;;;;;32.82;24.96;97353.75;5091012;28;20458;-68
2023/06/11 10:59:15;;;;;;;6.70;4.63;;;;;;;32.98;25.42;97362.47;5072965;28;20434;-68
2023/06/11 11:01:40;;;;;;;6.40;4.63;;;;;;;33.07;25.15;97360.72;5091875;28;20220;-69
2023/06/11 11:04:06;;;;;;;5.00;4.40;;;;;;;33.08;24.78;97356.88;5093341;28;20419;-69
2023/06/11 11:06:33;;;;;;;5.13;4.63;;;;;;;33.08;23.44;97362.31;5092721;28;20205;-70
2023/06/11 11:08:59;;;;;;;6.97;4.13;;;;;;;33.20;23.93;97351.00;5094298;28;20181;-69
2023/06/11 11:11:26;;;;;;;12.80;4.30;;;;;;;32.88;23.55;97352.59;5091337;28;20446;-70
2023/06/11 11:13:52;;;;;;;4.67;4.27;;;;;;;33.05;24.27;97348.53;5086275;28;20427;-67
2023/06/11 11:16:21;;;;;;;7.03;4.77;;;;;;;33.31;24.79;97348.91;5097113;28;20419;-69
2023/06/11 11:18:47;;;;;;;4.70;4.20;;;;;;;33.49;24.13;97349.16;5094691;28;20510;-68
2023/06/11 11:21:13;;;;;;;11.33;4.40;;;;;;;33.51;23.48;97345.06;5072770;28;20842;-70
2023/06/11 11:23:38;;;;;;;4.73;4.40;;;;;;;33.61;23.78;97346.78;5091023;28;20424;-68
2023/06/11 11:26:04;;;;;;;5.30;4.00;;;;;;;33.47;22.71;97344.06;5090811;28;20253;-69
2023/06/11 11:28:32;;;;;;;7.97;5.17;;;;;;;33.40;22.65;97340.91;5072411;28;20182;-68
2023/06/11 11:30:58;;;;;;;4.37;3.97;;;;;;;33.20;22.43;97342.06;5090139;28;20539;-68